createdAt,value
2022-12-31T00:01:30.138Z,13.04
2022-12-31T00:03:56.945Z,13.02
2022-12-31T00:06:34.340Z,12.93
2022-12-31T00:09:03.986Z,12.86
2022-12-31T00:11:31.538Z,12.86
2022-12-31T00:13:58.444Z,12.78
2022-12-31T00:16:31.283Z,12.80
2022-12-31T00:18:59.475Z,12.74
2022-12-31T00:21:28.142Z,12.71
2022-12-31T00:23:57.543Z,12.69
2022-12-31T00:26:28.164Z,12.67
2022-12-31T00:28:56.776Z,12.68
2022-12-31T00:31:29.479Z,12.64
2022-12-31T00:33:57.015Z,12.60
2022-12-31T00:36:26.014Z,12.65
2022-12-31T00:38:54.769Z,12.61
2022-12-31T00:41:22.613Z,12.59
2022-12-31T00:43:49.293Z,12.59
2022-12-31T00:46:16.548Z,12.56
2022-12-31T00:48:43.413Z,12.59
2022-12-31T00:51:12.431Z,12.62
2022-12-31T00:53:39.184Z,12.62
2022-12-31T00:56:13.084Z,12.57
2022-12-31T00:58:44.951Z,12.57
2022-12-31T01:01:23.480Z,12.59
2022-12-31T01:03:52.840Z,12.64
2022-12-31T01:06:21.550Z,12.67
2022-12-31T01:08:49.762Z,12.69
2022-12-31T01:11:19.007Z,12.69
2022-12-31T01:13:47.587Z,12.74
2022-12-31T01:16:15.001Z,12.78
2022-12-31T01:18:41.635Z,12.77
2022-12-31T01:21:12.451Z,12.84
2022-12-31T01:23:39.277Z,12.85
2022-12-31T01:26:08.815Z,12.87
2022-12-31T01:28:35.580Z,12.93
2022-12-31T01:31:07.130Z,12.88
2022-12-31T01:33:37.159Z,12.80
2022-12-31T01:36:05.497Z,12.80
2022-12-31T01:38:32.841Z,12.88
2022-12-31T01:41:02.478Z,12.83
2022-12-31T01:43:47.730Z,12.88
2022-12-31T01:46:21.232Z,12.92
2022-12-31T01:48:53.454Z,12.87
2022-12-31T01:51:20.414Z,12.90
2022-12-31T01:53:48.471Z,12.91
2022-12-31T01:56:18.154Z,12.95
2022-12-31T01:58:47.537Z,12.99
2022-12-31T02:01:21.680Z,13.09
2022-12-31T02:03:50.887Z,13.07
2022-12-31T02:06:23.631Z,13.00
2022-12-31T02:08:50.755Z,13.12
2022-12-31T02:11:27.934Z,13.14
2022-12-31T02:13:58.791Z,13.11
2022-12-31T02:16:36.148Z,13.10
2022-12-31T02:19:21.755Z,13.11
2022-12-31T02:22:14.169Z,13.13
2022-12-31T02:24:52.962Z,13.22
2022-12-31T02:27:35.067Z,13.06
2022-12-31T02:30:15.459Z,13.16
2022-12-31T02:33:05.577Z,13.19
2022-12-31T02:35:49.855Z,13.01
2022-12-31T02:38:32.329Z,13.06
2022-12-31T02:40:59.647Z,13.18
2022-12-31T02:43:29.131Z,13.27
2022-12-31T02:46:18.326Z,13.31
2022-12-31T02:49:07.876Z,13.50
2022-12-31T02:51:44.482Z,13.67
2022-12-31T02:54:22.891Z,13.59
2022-12-31T02:57:00.633Z,13.74
2022-12-31T02:59:56.669Z,13.79
2022-12-31T03:02:27.071Z,13.77
2022-12-31T03:04:55.992Z,13.86
2022-12-31T03:07:28.390Z,13.71
2022-12-31T03:09:57.981Z,13.77
2022-12-31T03:12:46.792Z,13.75
2022-12-31T03:15:23.404Z,13.78
2022-12-31T03:17:57.961Z,13.70
2022-12-31T03:21:02.497Z,13.64
2022-12-31T03:23:33.182Z,13.69
2022-12-31T03:26:01.423Z,13.64
2022-12-31T03:28:30.641Z,13.66
2022-12-31T03:31:02.501Z,13.69
2022-12-31T03:33:54.114Z,13.75
2022-12-31T03:36:20.496Z,13.61
2022-12-31T03:38:52.479Z,13.54
2022-12-31T03:41:19.100Z,13.48
2022-12-31T03:43:45.496Z,13.64
2022-12-31T03:46:11.890Z,13.65
2022-12-31T03:48:40.687Z,13.68
2022-12-31T03:51:10.635Z,13.67
2022-12-31T03:53:36.996Z,13.66
2022-12-31T03:56:03.518Z,13.70
2022-12-31T03:58:30.170Z,13.71
2022-12-31T04:00:56.903Z,13.57
2022-12-31T04:03:30.808Z,13.55
2022-12-31T04:05:57.332Z,13.66
2022-12-31T04:08:27.004Z,13.75
2022-12-31T04:10:53.512Z,13.67
2022-12-31T04:13:22.253Z,13.79
2022-12-31T04:15:52.043Z,13.77
2022-12-31T04:18:21.421Z,13.84
2022-12-31T04:20:47.928Z,13.86
2022-12-31T04:23:14.293Z,13.85
2022-12-31T04:25:43.207Z,13.80
2022-12-31T04:28:12.121Z,13.81
2022-12-31T04:30:38.643Z,13.79
2022-12-31T04:33:07.610Z,13.90
2022-12-31T04:35:36.551Z,13.91
2022-12-31T04:38:03.124Z,13.97
2022-12-31T04:40:29.532Z,13.96
2022-12-31T04:42:56.058Z,13.99
2022-12-31T04:45:22.564Z,14.00
2022-12-31T04:47:49.025Z,14.09
2022-12-31T04:50:17.770Z,14.03
2022-12-31T04:52:47.276Z,13.99
2022-12-31T04:55:16.659Z,14.03
2022-12-31T04:57:43.105Z,14.11
2022-12-31T05:00:10.133Z,14.11
2022-12-31T05:02:36.623Z,14.10
2022-12-31T05:05:03.241Z,14.18
2022-12-31T05:07:32.001Z,14.19
2022-12-31T05:10:00.871Z,14.21
2022-12-31T05:12:27.454Z,14.27
2022-12-31T05:14:56.025Z,14.27
2022-12-31T05:17:22.465Z,14.31
2022-12-31T05:19:51.262Z,14.32
2022-12-31T05:22:29.897Z,14.28
2022-12-31T05:24:58.246Z,14.19
2022-12-31T05:27:25.975Z,14.37
2022-12-31T05:29:52.430Z,14.36
2022-12-31T05:32:18.801Z,14.46
2022-12-31T05:34:45.205Z,14.47
2022-12-31T05:37:14.163Z,14.47
2022-12-31T05:39:40.554Z,14.39
2022-12-31T05:42:06.957Z,14.52
2022-12-31T05:44:35.606Z,14.49
2022-12-31T05:47:02.090Z,14.58
2022-12-31T05:49:28.485Z,14.65
2022-12-31T05:51:54.850Z,14.66
2022-12-31T05:54:21.518Z,14.65
2022-12-31T05:56:47.921Z,14.56
2022-12-31T05:59:14.352Z,14.56
2022-12-31T06:01:41.125Z,14.59
2022-12-31T06:04:07.623Z,14.69
2022-12-31T06:06:34.044Z,14.67
2022-12-31T06:09:00.727Z,14.59
2022-12-31T06:11:27.175Z,14.56
2022-12-31T06:13:53.641Z,14.55
2022-12-31T06:16:20.149Z,14.58
2022-12-31T06:18:50.770Z,14.65
2022-12-31T06:21:18.256Z,14.67
2022-12-31T06:23:44.743Z,14.68
2022-12-31T06:26:11.172Z,14.61
2022-12-31T06:28:37.518Z,14.72
2022-12-31T06:31:06.206Z,14.78
2022-12-31T06:33:33.672Z,14.73
2022-12-31T06:36:02.758Z,14.70
2022-12-31T06:38:31.039Z,14.65
2022-12-31T06:40:57.405Z,14.76
2022-12-31T06:43:23.768Z,14.73
2022-12-31T06:45:52.492Z,14.68
2022-12-31T06:48:18.831Z,14.61
2022-12-31T06:50:45.169Z,14.60
2022-12-31T06:53:13.852Z,14.61
2022-12-31T06:55:43.169Z,14.65
2022-12-31T06:58:15.894Z,14.54
2022-12-31T07:01:14.853Z,14.58
2022-12-31T07:04:04.101Z,14.55
2022-12-31T07:06:43.988Z,14.47
2022-12-31T07:09:21.507Z,14.36
2022-12-31T07:12:03.773Z,14.29
2022-12-31T07:14:30.103Z,14.29
2022-12-31T07:17:02.715Z,14.39
2022-12-31T07:19:36.421Z,14.35
2022-12-31T07:22:05.684Z,14.29
2022-12-31T07:24:32.362Z,14.28
2022-12-31T07:27:05.368Z,14.32
2022-12-31T07:29:42.128Z,14.32
2022-12-31T07:32:48.116Z,14.36
2022-12-31T07:35:35.211Z,14.35
2022-12-31T07:38:26.990Z,14.37
2022-12-31T07:41:16.786Z,14.40
2022-12-31T07:44:14.511Z,14.41
2022-12-31T07:46:53.156Z,14.39
2022-12-31T07:49:23.645Z,14.28
2022-12-31T07:51:53.321Z,14.33
2022-12-31T07:54:20.158Z,14.29
2022-12-31T07:56:47.012Z,14.32
2022-12-31T07:59:37.396Z,14.32
2022-12-31T08:02:14.478Z,14.29
2022-12-31T08:04:59.613Z,14.28
2022-12-31T08:07:28.799Z,14.45
2022-12-31T08:10:02.857Z,14.54
2022-12-31T08:12:37.418Z,14.49
2022-12-31T08:15:12.893Z,14.40
2022-12-31T08:17:44.339Z,14.39
2022-12-31T08:20:20.412Z,14.46
2022-12-31T08:23:20.703Z,14.49
2022-12-31T08:26:08.111Z,14.55
2022-12-31T08:28:56.296Z,14.55
2022-12-31T08:31:27.819Z,14.61
2022-12-31T08:34:08.292Z,14.63
2022-12-31T08:36:43.403Z,14.62
2022-12-31T08:39:28.677Z,14.66
2022-12-31T08:41:58.210Z,14.66
2022-12-31T08:44:36.362Z,14.67
2022-12-31T08:47:02.738Z,14.76
2022-12-31T08:49:34.039Z,14.80
2022-12-31T08:52:01.686Z,14.82
2022-12-31T08:54:29.181Z,14.90
2022-12-31T08:57:21.041Z,14.89
2022-12-31T09:00:02.211Z,14.96
2022-12-31T09:03:02.868Z,15.04
2022-12-31T09:06:14.971Z,15.05
2022-12-31T09:08:52.342Z,15.05
2022-12-31T09:11:33.679Z,15.02
2022-12-31T09:14:40.868Z,15.10
2022-12-31T09:17:28.579Z,15.14
2022-12-31T09:19:55.417Z,15.23
2022-12-31T09:22:22.152Z,15.23
2022-12-31T09:24:51.631Z,15.20
2022-12-31T09:27:28.574Z,15.20
2022-12-31T09:30:04.715Z,15.24
2022-12-31T09:32:45.525Z,15.26
2022-12-31T09:35:36.648Z,15.27
2022-12-31T09:38:19.691Z,15.40
2022-12-31T09:41:00.870Z,15.50
2022-12-31T09:43:49.474Z,15.51
2022-12-31T09:46:18.852Z,15.65
2022-12-31T09:49:16.564Z,15.64
2022-12-31T09:52:21.657Z,15.74
2022-12-31T09:55:06.797Z,15.68
2022-12-31T09:58:08.523Z,15.70
2022-12-31T10:00:44.625Z,15.65
2022-12-31T10:03:35.568Z,15.76
2022-12-31T10:06:32.967Z,15.81
2022-12-31T10:09:08.068Z,15.92
2022-12-31T10:11:43.681Z,15.95
2022-12-31T10:14:47.605Z,16.00
2022-12-31T10:17:39.845Z,15.97
2022-12-31T10:20:24.821Z,16.12
2022-12-31T10:23:28.860Z,16.17
2022-12-31T10:26:03.989Z,16.13
2022-12-31T10:28:53.963Z,16.29
2022-12-31T10:31:57.091Z,16.31
2022-12-31T10:34:34.593Z,16.38
2022-12-31T10:37:11.868Z,16.48
2022-12-31T10:40:04.702Z,16.36
2022-12-31T10:43:03.527Z,16.40
2022-12-31T10:46:05.677Z,16.42
2022-12-31T10:48:58.491Z,16.55
2022-12-31T10:51:27.799Z,16.59
2022-12-31T10:54:21.790Z,16.69
2022-12-31T10:56:54.310Z,16.78
2022-12-31T10:59:36.035Z,17.00
2022-12-31T11:02:29.221Z,16.96
2022-12-31T11:05:30.107Z,17.03
2022-12-31T11:08:12.645Z,17.01
2022-12-31T11:11:01.353Z,17.05
2022-12-31T11:13:58.056Z,17.20
2022-12-31T11:16:44.759Z,17.25
2022-12-31T11:19:21.981Z,17.31
2022-12-31T11:22:00.511Z,17.48
2022-12-31T11:25:04.038Z,17.47
2022-12-31T11:27:52.468Z,17.54
2022-12-31T11:30:25.017Z,17.62
2022-12-31T11:32:57.332Z,17.63
2022-12-31T11:36:10.090Z,17.68
2022-12-31T11:38:43.546Z,17.79
2022-12-31T11:41:42.642Z,17.83
2022-12-31T11:44:23.586Z,17.88
2022-12-31T11:47:08.871Z,17.92
2022-12-31T11:50:03.563Z,17.94
2022-12-31T11:52:46.267Z,17.96
2022-12-31T11:55:37.670Z,17.98
2022-12-31T11:58:17.806Z,17.91
2022-12-31T12:01:15.044Z,17.95
2022-12-31T12:03:43.724Z,17.97
2022-12-31T12:06:16.484Z,17.97
2022-12-31T12:08:44.273Z,17.86
2022-12-31T12:11:23.593Z,17.81
2022-12-31T12:13:52.696Z,17.88
2022-12-31T12:16:23.652Z,17.96
2022-12-31T12:19:02.102Z,17.90
2022-12-31T12:21:28.788Z,17.83
2022-12-31T12:24:19.346Z,17.83
2022-12-31T12:26:48.761Z,17.88
2022-12-31T12:29:15.202Z,17.81
2022-12-31T12:31:41.802Z,17.87
2022-12-31T12:34:30.162Z,17.88
2022-12-31T12:36:56.987Z,17.82
2022-12-31T12:39:25.866Z,17.83
2022-12-31T12:42:01.676Z,17.82
2022-12-31T12:44:28.034Z,17.88
2022-12-31T12:46:55.828Z,17.94
2022-12-31T12:49:26.586Z,17.86
2022-12-31T12:52:14.937Z,17.74
2022-12-31T12:55:00.104Z,17.92
2022-12-31T12:57:40.822Z,18.02
2022-12-31T13:00:20.984Z,17.92
2022-12-31T13:03:05.477Z,17.86
2022-12-31T13:05:58.318Z,17.78
2022-12-31T13:09:00.146Z,17.81
2022-12-31T13:11:39.209Z,17.80
2022-12-31T13:14:31.026Z,17.74
2022-12-31T13:17:16.608Z,17.88
2022-12-31T13:19:59.077Z,17.89
2022-12-31T13:22:51.965Z,17.80
2022-12-31T13:25:39.536Z,17.78
2022-12-31T13:28:12.456Z,17.69
2022-12-31T13:30:49.293Z,17.65
2022-12-31T13:33:31.116Z,17.62
2022-12-31T13:36:01.917Z,17.68
2022-12-31T13:38:51.124Z,17.59
2022-12-31T13:41:24.804Z,17.45
2022-12-31T13:44:04.652Z,17.43
2022-12-31T13:47:12.716Z,17.39
2022-12-31T13:49:44.532Z,17.31
2022-12-31T13:52:34.542Z,17.34
2022-12-31T13:55:39.486Z,17.25
2022-12-31T13:58:35.341Z,17.29
2022-12-31T14:01:41.054Z,17.17
2022-12-31T14:04:12.917Z,17.09
2022-12-31T14:07:05.445Z,16.96
2022-12-31T14:09:35.017Z,17.01
2022-12-31T14:12:09.491Z,16.83
2022-12-31T14:15:00.807Z,16.84
2022-12-31T14:17:42.335Z,16.77
2022-12-31T14:20:25.196Z,16.81
2022-12-31T14:23:13.565Z,16.83
2022-12-31T14:25:47.770Z,16.79
2022-12-31T14:28:22.164Z,16.74
2022-12-31T14:30:55.336Z,16.70
2022-12-31T14:33:30.163Z,16.67
2022-12-31T14:36:10.751Z,16.62
2022-12-31T14:39:09.544Z,16.54
2022-12-31T14:41:41.710Z,16.65
2022-12-31T14:44:42.036Z,16.58
2022-12-31T14:47:24.000Z,16.65
2022-12-31T14:50:11.600Z,16.42
2022-12-31T14:53:03.621Z,16.42
2022-12-31T14:55:35.709Z,16.31
2022-12-31T15:01:08.979Z,16.10
2022-12-31T15:03:45.801Z,15.90
2022-12-31T15:06:24.672Z,15.95
2022-12-31T15:09:18.316Z,15.81
2022-12-31T15:12:15.661Z,15.78
2022-12-31T15:15:09.539Z,15.61
2022-12-31T15:18:01.010Z,15.58
2022-12-31T15:20:55.539Z,15.50
2022-12-31T15:23:37.870Z,15.41
2022-12-31T15:26:06.169Z,15.31
2022-12-31T15:28:39.791Z,15.31
2022-12-31T15:31:26.927Z,15.14
2022-12-31T15:34:09.545Z,15.06
2022-12-31T15:36:38.965Z,15.03
2022-12-31T15:39:09.826Z,14.86
2022-12-31T15:41:37.458Z,14.89
2022-12-31T15:44:25.883Z,14.75
2022-12-31T15:47:00.397Z,14.62
2022-12-31T15:49:34.851Z,14.56
2022-12-31T15:52:04.628Z,14.44
2022-12-31T15:54:44.793Z,14.40
2022-12-31T15:57:25.828Z,14.37
2022-12-31T15:59:59.599Z,14.32
2022-12-31T16:02:27.962Z,14.27
2022-12-31T16:04:57.933Z,14.26
2022-12-31T16:07:26.351Z,14.17
2022-12-31T16:09:59.532Z,14.15
2022-12-31T16:12:33.220Z,14.11
2022-12-31T16:15:03.328Z,14.13
2022-12-31T16:17:32.680Z,14.37
2022-12-31T16:20:01.065Z,14.29
2022-12-31T16:22:37.303Z,14.16
2022-12-31T16:25:30.593Z,14.13
2022-12-31T16:28:04.642Z,14.13
2022-12-31T16:30:36.314Z,14.24
2022-12-31T16:33:12.687Z,14.09
2022-12-31T16:35:39.089Z,14.23
2022-12-31T16:38:14.976Z,14.21
2022-12-31T16:40:43.592Z,14.26
2022-12-31T16:43:27.682Z,14.21
2022-12-31T16:46:06.894Z,14.34
2022-12-31T16:48:33.402Z,14.22
2022-12-31T16:50:59.875Z,14.30
2022-12-31T16:53:27.959Z,14.29
2022-12-31T16:55:58.445Z,14.22
2022-12-31T16:58:34.473Z,14.15
2022-12-31T17:01:13.915Z,14.15
2022-12-31T17:03:45.353Z,14.13
2022-12-31T17:06:21.505Z,14.07
2022-12-31T17:09:05.271Z,13.98
2022-12-31T17:11:35.638Z,13.96
2022-12-31T17:14:08.121Z,13.87
2022-12-31T17:16:37.164Z,13.79
2022-12-31T17:19:06.761Z,13.80
2022-12-31T17:21:33.467Z,13.82
2022-12-31T17:24:07.032Z,13.91
2022-12-31T17:26:40.472Z,13.81
2022-12-31T17:29:26.218Z,13.81
2022-12-31T17:32:02.543Z,13.72
2022-12-31T17:34:34.119Z,13.69
2022-12-31T17:37:17.616Z,13.70
2022-12-31T17:39:47.818Z,13.69
2022-12-31T17:42:24.213Z,13.71
2022-12-31T17:45:00.872Z,13.79
2022-12-31T17:47:39.042Z,13.82
2022-12-31T17:50:23.742Z,13.78
2022-12-31T17:52:55.261Z,13.78
2022-12-31T17:55:21.747Z,14.02
2022-12-31T17:57:52.241Z,13.97
2022-12-31T18:00:21.069Z,14.16
2022-12-31T18:02:47.726Z,14.06
2022-12-31T18:05:19.191Z,14.01
2022-12-31T18:07:45.934Z,14.19
2022-12-31T18:10:16.873Z,14.18
2022-12-31T18:12:44.704Z,14.25
2022-12-31T18:15:23.437Z,14.30
2022-12-31T18:17:50.004Z,14.38
2022-12-31T18:20:17.118Z,14.39
2022-12-31T18:22:44.692Z,14.43
2022-12-31T18:25:20.434Z,14.50
2022-12-31T18:27:48.035Z,14.63
2022-12-31T18:30:16.541Z,14.50
2022-12-31T18:32:45.197Z,14.56
2022-12-31T18:35:33.302Z,14.63
2022-12-31T18:38:01.472Z,14.56
2022-12-31T18:40:28.445Z,14.48
2022-12-31T18:42:59.668Z,14.40
2022-12-31T18:45:29.258Z,14.34
2022-12-31T18:47:55.843Z,14.40
2022-12-31T18:50:24.432Z,14.36
2022-12-31T18:52:53.440Z,14.30
2022-12-31T18:55:26.168Z,14.37
2022-12-31T18:57:52.871Z,14.23
2022-12-31T19:00:19.501Z,14.24
2022-12-31T19:02:48.182Z,14.20
2022-12-31T19:05:26.319Z,14.25
2022-12-31T19:07:52.974Z,14.18
2022-12-31T19:10:20.159Z,14.06
2022-12-31T19:12:50.527Z,14.13
2022-12-31T19:15:34.991Z,14.07
2022-12-31T19:18:09.695Z,13.92
2022-12-31T19:20:36.144Z,13.94
2022-12-31T19:23:02.518Z,13.84
2022-12-31T19:25:36.346Z,13.75
2022-12-31T19:28:09.418Z,13.66
2022-12-31T19:30:36.441Z,13.78
2022-12-31T19:33:09.742Z,13.74
2022-12-31T19:35:38.431Z,13.57
2022-12-31T19:38:12.709Z,13.51
2022-12-31T19:40:40.244Z,13.46
2022-12-31T19:43:19.685Z,13.44
2022-12-31T19:45:50.438Z,13.37
2022-12-31T19:48:32.351Z,13.34
2022-12-31T19:50:59.796Z,13.34
2022-12-31T19:53:27.377Z,13.33
2022-12-31T19:55:54.351Z,13.31
2022-12-31T19:58:27.925Z,13.28
2022-12-31T20:01:02.038Z,13.27
2022-12-31T20:03:29.936Z,13.27
2022-12-31T20:06:07.554Z,13.27
2022-12-31T20:08:35.359Z,13.17
2022-12-31T20:11:13.247Z,13.11
2022-12-31T20:13:40.947Z,13.17
2022-12-31T20:16:09.323Z,13.15
2022-12-31T20:18:46.761Z,13.19
2022-12-31T20:21:22.204Z,13.08
2022-12-31T20:23:52.566Z,13.10
2022-12-31T20:26:21.405Z,13.14
2022-12-31T20:28:48.078Z,13.02
2022-12-31T20:31:20.918Z,13.19
2022-12-31T20:33:49.755Z,12.99
2022-12-31T20:36:20.692Z,13.02
2022-12-31T20:38:47.513Z,12.97
2022-12-31T20:41:21.884Z,13.00
2022-12-31T20:43:48.667Z,12.90
2022-12-31T20:46:19.307Z,12.92
2022-12-31T20:48:46.795Z,13.00
2022-12-31T20:51:17.143Z,12.85
2022-12-31T20:53:48.585Z,12.85
2022-12-31T20:56:15.294Z,12.76
2022-12-31T20:58:41.840Z,12.73
2022-12-31T21:01:13.644Z,12.71
2022-12-31T21:06:29.435Z,12.73
2022-12-31T21:08:57.745Z,12.69
2022-12-31T21:11:43.179Z,12.76
2022-12-31T21:14:09.851Z,12.74
2022-12-31T21:16:36.489Z,12.71
2022-12-31T21:19:03.034Z,12.71
2022-12-31T21:21:29.718Z,12.71
2022-12-31T21:23:56.243Z,12.77
2022-12-31T21:26:22.755Z,12.79
2022-12-31T21:28:51.550Z,12.70
2022-12-31T21:31:20.423Z,12.72
2022-12-31T21:33:47.761Z,12.59
2022-12-31T21:36:15.697Z,12.69
2022-12-31T21:38:44.760Z,12.65
2022-12-31T21:41:35.049Z,12.56
2022-12-31T21:44:03.322Z,12.50
2022-12-31T21:46:30.510Z,12.56
2022-12-31T21:49:08.796Z,12.48
2022-12-31T21:51:55.200Z,12.49
2022-12-31T21:54:41.639Z,12.50
2022-12-31T21:57:08.507Z,12.50
2022-12-31T22:00:23.955Z,12.49
2022-12-31T22:03:01.519Z,12.54
2022-12-31T22:05:28.127Z,12.46
2022-12-31T22:07:56.857Z,12.65
2022-12-31T22:10:23.314Z,12.59
2022-12-31T22:12:49.839Z,12.69
2022-12-31T22:15:16.435Z,12.67
2022-12-31T22:17:43.012Z,12.82
2022-12-31T22:20:27.213Z,12.86
2022-12-31T22:22:57.082Z,13.01
2022-12-31T22:25:28.594Z,13.02
2022-12-31T22:28:36.277Z,13.08
2022-12-31T22:30:47.439Z,13.14
2022-12-31T22:33:13.891Z,13.17
2022-12-31T22:35:40.525Z,13.27
2022-12-31T22:38:15.805Z,13.26
2022-12-31T22:40:42.385Z,13.25
2022-12-31T22:43:08.752Z,13.46
2022-12-31T22:45:36.483Z,13.36
2022-12-31T22:48:02.866Z,13.27
2022-12-31T22:50:31.661Z,13.27
2022-12-31T22:52:58.193Z,13.33
2022-12-31T22:55:24.557Z,13.34
2022-12-31T22:57:50.996Z,13.32
2022-12-31T23:00:17.449Z,13.26
2022-12-31T23:02:43.989Z,13.18
2022-12-31T23:05:16.113Z,13.11
2022-12-31T23:07:42.937Z,13.07
2022-12-31T23:10:29.383Z,12.94
2022-12-31T23:12:55.804Z,12.95
2022-12-31T23:15:40.835Z,12.91
2022-12-31T23:18:26.033Z,13.04
2022-12-31T23:21:10.996Z,13.02
2022-12-31T23:23:37.436Z,12.95
2022-12-31T23:26:12.295Z,12.92
2022-12-31T23:28:41.926Z,13.04
2022-12-31T23:31:10.586Z,13.10
2022-12-31T23:33:36.986Z,13.13
2022-12-31T23:36:07.206Z,12.98
2022-12-31T23:38:33.807Z,13.18
2022-12-31T23:41:16.914Z,13.26
2022-12-31T23:43:44.063Z,13.23
2022-12-31T23:46:11.878Z,13.37
2022-12-31T23:48:38.271Z,13.37
2022-12-31T23:51:05.394Z,13.30
2022-12-31T23:53:32.025Z,13.49
2022-12-31T23:56:14.910Z,13.50
2022-12-31T23:58:44.694Z,13.52
